createdAt,value
2023-08-11T00:04:20.571Z,101167.78
2023-08-11T00:14:29.394Z,101159.88
2023-08-11T00:24:31.328Z,101149.81
2023-08-11T00:34:35.243Z,101160.97
2023-08-11T00:44:37.258Z,101157.47
2023-08-11T00:54:47.750Z,101156.97
2023-08-11T01:04:50.057Z,101150.41
2023-08-11T01:15:27.019Z,101149.06
2023-08-11T01:25:31.233Z,101142.66
2023-08-11T01:35:58.605Z,101135.50
2023-08-11T01:46:00.916Z,101140.75
2023-08-11T01:56:04.296Z,101134.41
2023-08-11T02:06:07.234Z,101139.59
2023-08-11T02:16:17.251Z,101136.63
2023-08-11T02:26:19.220Z,101134.28
2023-08-11T02:36:22.226Z,101151.16
2023-08-11T02:46:25.143Z,101149.63
2023-08-11T02:56:27.112Z,101154.34
2023-08-11T03:06:29.277Z,101160.25
2023-08-11T03:16:34.029Z,101167.16
2023-08-11T03:26:35.951Z,101167.72
2023-08-11T03:36:37.902Z,101169.00
2023-08-11T03:46:42.005Z,101181.38
2023-08-11T03:56:45.087Z,101187.09
2023-08-11T04:06:53.342Z,101182.00
2023-08-11T04:16:55.672Z,101187.41
2023-08-11T04:26:57.609Z,101181.06
2023-08-11T04:37:06.705Z,101186.59
2023-08-11T04:47:24.856Z,101198.59
2023-08-11T04:57:26.852Z,101198.34
2023-08-11T05:07:28.859Z,101198.13
2023-08-11T05:17:32.442Z,101207.94
2023-08-11T05:27:35.648Z,101208.75
2023-08-11T05:37:42.617Z,101204.53
2023-08-11T05:47:44.649Z,101205.31
2023-08-11T05:57:46.702Z,101206.50
2023-08-11T06:08:00.111Z,101215.16
2023-08-11T06:18:08.287Z,101220.84
2023-08-11T06:28:18.413Z,101230.19
2023-08-11T06:38:21.542Z,101228.25
2023-08-11T06:48:31.792Z,101238.25
2023-08-11T06:58:34.742Z,101232.25
2023-08-11T07:08:44.612Z,101230.84
2023-08-11T07:18:46.500Z,101236.56
2023-08-11T07:28:48.547Z,101236.06
2023-08-11T07:39:09.209Z,101243.91
2023-08-11T07:49:21.561Z,101237.44
2023-08-11T07:59:48.253Z,101246.88
2023-08-11T08:09:50.243Z,101243.53
2023-08-11T08:19:58.647Z,101249.22
2023-08-11T08:30:00.600Z,101250.44
2023-08-11T08:40:03.134Z,101258.66
2023-08-11T08:50:05.910Z,101248.31
2023-08-11T09:00:16.131Z,101248.81
2023-08-11T09:10:19.783Z,101250.59
2023-08-11T09:20:30.686Z,101247.72
2023-08-11T09:30:33.213Z,101243.19
2023-08-11T09:40:36.644Z,101240.94
2023-08-11T09:50:42.261Z,101242.06
2023-08-11T10:00:46.627Z,101238.38
2023-08-11T10:10:48.801Z,101245.03
2023-08-11T10:20:52.724Z,101239.91
2023-08-11T10:31:00.291Z,101220.41
2023-08-11T10:41:05.138Z,101222.88
2023-08-11T10:51:24.630Z,101212.63
2023-08-11T11:01:26.887Z,101215.38
2023-08-11T11:11:29.084Z,101210.97
2023-08-11T11:21:32.309Z,101219.06
2023-08-11T11:31:36.999Z,101214.91
2023-08-11T11:41:39.838Z,101213.09
2023-08-11T11:51:43.587Z,101199.03
2023-08-11T12:01:46.959Z,101198.25
2023-08-11T12:11:50.179Z,101187.97
2023-08-11T12:21:52.202Z,101194.25
2023-08-11T12:31:54.335Z,101193.00
2023-08-11T12:41:56.697Z,101197.38
2023-08-11T12:51:58.816Z,101193.53
2023-08-11T13:02:08.133Z,101184.78
2023-08-11T13:12:19.524Z,101183.47
2023-08-11T13:22:21.563Z,101168.69
2023-08-11T13:32:31.749Z,101179.53
2023-08-11T13:42:44.225Z,101161.97
2023-08-11T13:52:51.280Z,101170.66
2023-08-11T14:03:10.598Z,101171.56
2023-08-11T14:13:15.968Z,101169.16
2023-08-11T14:23:19.041Z,101163.31
2023-08-11T14:33:21.246Z,101166.09
2023-08-11T14:43:23.346Z,101161.13
2023-08-11T14:53:31.530Z,101171.69
2023-08-11T15:03:41.678Z,101168.75
2023-08-11T15:13:53.030Z,101168.75
2023-08-11T15:23:57.106Z,101166.56
2023-08-11T15:34:15.462Z,101170.13
2023-08-11T15:44:18.646Z,101170.25
2023-08-11T15:54:30.131Z,101160.00
2023-08-11T16:04:38.381Z,101158.44
2023-08-11T16:14:49.596Z,101172.84
2023-08-11T16:24:51.752Z,101165.34
2023-08-11T16:34:57.903Z,101173.94
2023-08-11T16:44:59.958Z,101183.31
2023-08-11T16:55:07.033Z,101188.03
2023-08-11T17:05:10.513Z,101198.31
2023-08-11T17:15:12.910Z,101197.00
2023-08-11T17:25:19.100Z,101189.16
2023-08-11T17:35:29.087Z,101194.91
2023-08-11T17:45:40.024Z,101192.50
2023-08-11T17:55:45.073Z,101207.94
2023-08-11T18:05:54.248Z,101225.00
2023-08-11T18:16:03.582Z,101235.44
2023-08-11T18:26:17.869Z,101243.75
2023-08-11T18:36:46.055Z,101262.81
2023-08-11T18:46:54.229Z,101269.44
2023-08-11T19:07:03.341Z,101282.25
2023-08-11T19:17:14.004Z,101284.81
2023-08-11T19:27:27.726Z,101283.69
2023-08-11T19:37:31.207Z,101291.63
2023-08-11T19:47:41.797Z,101301.19
2023-08-11T19:57:46.138Z,101286.03
2023-08-11T20:07:49.282Z,101288.59
2023-08-11T20:17:51.736Z,101281.31
2023-08-11T20:27:54.260Z,101284.19
2023-08-11T20:38:03.418Z,101281.28
2023-08-11T20:48:15.995Z,101291.69
2023-08-11T20:58:24.565Z,101288.38
2023-08-11T21:08:29.082Z,101291.31
2023-08-11T21:18:32.124Z,101279.72
2023-08-11T21:28:54.250Z,101284.25
2023-08-11T21:39:21.742Z,101285.03
2023-08-11T21:49:34.499Z,101278.47
2023-08-11T21:59:38.952Z,101271.34
2023-08-11T22:09:47.169Z,101279.78
2023-08-11T22:19:59.664Z,101267.09
2023-08-11T22:30:09.694Z,101280.31
2023-08-11T22:40:13.842Z,101276.06
2023-08-11T22:50:17.319Z,101282.13
2023-08-11T23:00:20.147Z,101277.09
2023-08-11T23:10:23.453Z,101272.25
2023-08-11T23:20:26.411Z,101274.63
2023-08-11T23:30:28.966Z,101284.88
2023-08-11T23:40:43.984Z,101280.41
2023-08-11T23:50:59.912Z,101280.59
